createdAt,value
2022-10-03T00:04:22.873Z,35.05
2022-10-03T00:09:47.213Z,34.63
2022-10-03T00:15:01.439Z,34.35
2022-10-03T00:20:13.617Z,34.63
2022-10-03T00:25:30.389Z,34.03
2022-10-03T00:30:51.327Z,34.30
2022-10-03T00:36:15.209Z,34.55
2022-10-03T00:41:44.037Z,34.22
2022-10-03T00:47:30.531Z,34.13
2022-10-03T00:52:49.401Z,34.80
2022-10-03T00:58:15.137Z,34.28
2022-10-03T01:03:35.042Z,34.10
2022-10-03T01:09:06.743Z,34.30
2022-10-03T01:14:23.422Z,33.65
2022-10-03T01:19:49.390Z,34.22
2022-10-03T01:24:56.822Z,33.90
2022-10-03T01:30:21.229Z,33.65
2022-10-03T01:35:32.808Z,33.67
2022-10-03T01:40:40.102Z,33.75
2022-10-03T01:45:53.428Z,33.95
2022-10-03T01:51:04.602Z,34.25
2022-10-03T01:56:13.387Z,33.75
2022-10-03T02:01:26.228Z,33.95
2022-10-03T02:06:37.573Z,33.53
2022-10-03T02:11:55.388Z,33.60
2022-10-03T02:17:05.047Z,33.63
2022-10-03T02:22:16.734Z,33.78
2022-10-03T02:27:51.159Z,33.25
2022-10-03T02:33:27.353Z,39.15
2022-10-03T02:39:08.356Z,34.50
2022-10-03T02:44:40.357Z,34.85
2022-10-03T02:50:19.285Z,34.08
2022-10-03T02:55:50.050Z,33.90
2022-10-03T03:01:24.236Z,33.60
2022-10-03T03:06:55.671Z,33.88
2022-10-03T03:12:50.590Z,34.22
2022-10-03T03:18:01.427Z,33.85
2022-10-03T03:23:23.975Z,33.88
2022-10-03T03:28:41.067Z,33.97
2022-10-03T03:33:59.383Z,33.88
2022-10-03T03:39:24.001Z,34.05
2022-10-03T03:45:02.006Z,34.17
2022-10-03T03:50:24.208Z,34.47
2022-10-03T03:55:48.570Z,34.75
2022-10-03T04:01:07.757Z,34.38
2022-10-03T04:06:36.794Z,34.55
2022-10-03T04:11:51.774Z,35.33
2022-10-03T04:17:44.729Z,38.17
2022-10-03T04:23:01.153Z,36.28
2022-10-03T04:28:39.325Z,36.25
2022-10-03T04:33:54.978Z,36.83
2022-10-03T04:39:07.882Z,35.58
2022-10-03T04:44:29.404Z,35.58
2022-10-03T04:49:36.759Z,38.90
2022-10-03T04:54:52.995Z,36.08
2022-10-03T05:00:08.207Z,36.03
2022-10-03T05:05:32.956Z,36.08
2022-10-03T05:10:53.161Z,35.08
2022-10-03T05:16:04.898Z,35.53
2022-10-03T05:21:15.967Z,35.38
2022-10-03T05:26:44.674Z,36.20
2022-10-03T05:32:02.143Z,36.72
2022-10-03T05:37:24.414Z,35.95
2022-10-03T05:42:59.046Z,35.92
2022-10-03T05:48:15.380Z,35.42
2022-10-03T05:53:47.569Z,35.42
2022-10-03T05:59:32.601Z,35.40
2022-10-03T06:04:54.491Z,35.58
2022-10-03T06:10:50.909Z,36.03
2022-10-03T06:16:02.201Z,35.67
2022-10-03T06:21:33.846Z,35.58
2022-10-03T06:27:04.022Z,36.35
2022-10-03T06:32:34.225Z,36.20
2022-10-03T06:38:10.572Z,35.65
2022-10-03T06:43:44.864Z,35.67
2022-10-03T06:49:21.809Z,35.95
2022-10-03T06:55:16.662Z,36.25
2022-10-03T07:00:22.515Z,36.13
2022-10-03T07:05:56.275Z,35.45
2022-10-03T07:11:16.847Z,35.42
2022-10-03T07:16:43.801Z,35.47
2022-10-03T07:22:39.732Z,35.97
2022-10-03T07:27:55.720Z,35.78
2022-10-03T07:33:41.515Z,36.95
2022-10-03T07:39:19.722Z,36.47
2022-10-03T07:45:04.512Z,36.70
2022-10-03T07:50:37.791Z,36.97
2022-10-03T07:56:05.973Z,36.35
2022-10-03T08:01:33.803Z,35.83
2022-10-03T08:06:43.402Z,36.03
2022-10-03T08:12:14.459Z,37.33
2022-10-03T08:18:06.500Z,36.38
2022-10-03T08:23:50.576Z,35.80
2022-10-03T08:29:19.889Z,36.65
2022-10-03T08:34:34.629Z,36.58
2022-10-03T08:40:20.108Z,35.90
2022-10-03T08:45:46.693Z,37.85
2022-10-03T08:51:06.631Z,37.28
2022-10-03T08:56:16.095Z,37.55
2022-10-03T09:01:46.995Z,36.83
2022-10-03T09:07:17.928Z,37.17
2022-10-03T09:12:42.554Z,38.38
2022-10-03T09:18:29.566Z,38.35
2022-10-03T09:24:06.200Z,36.90
2022-10-03T09:29:33.215Z,37.92
2022-10-03T09:35:06.996Z,37.53
2022-10-03T09:41:06.139Z,37.35
2022-10-03T09:46:40.048Z,37.28
2022-10-03T09:51:57.318Z,38.00
2022-10-03T09:57:22.731Z,36.80
2022-10-03T10:02:56.256Z,37.45
2022-10-03T10:08:27.242Z,37.50
2022-10-03T10:14:08.432Z,37.83
2022-10-03T10:19:43.000Z,37.03
2022-10-03T10:25:34.492Z,37.35
2022-10-03T10:31:20.348Z,37.72
2022-10-03T10:37:10.697Z,37.17
2022-10-03T10:43:09.575Z,37.92
2022-10-03T10:49:11.844Z,37.88
2022-10-03T10:55:03.698Z,37.88
2022-10-03T11:00:25.191Z,38.05
2022-10-03T11:06:14.404Z,36.95
2022-10-03T11:12:07.677Z,37.17
2022-10-03T11:17:32.893Z,37.55
2022-10-03T11:23:20.528Z,36.85
2022-10-03T11:29:03.835Z,37.17
2022-10-03T11:34:58.296Z,37.95
2022-10-03T11:40:14.773Z,37.75
2022-10-03T11:45:27.319Z,38.20
2022-10-03T11:50:52.419Z,38.22
2022-10-03T11:56:11.910Z,37.20
2022-10-03T12:01:25.990Z,37.95
2022-10-03T12:07:08.323Z,38.30
2022-10-03T12:12:18.178Z,37.40
2022-10-03T12:17:32.414Z,37.53
2022-10-03T12:22:48.154Z,38.00
2022-10-03T12:28:11.404Z,38.35
2022-10-03T12:33:29.758Z,38.40
2022-10-03T12:38:50.794Z,38.03
2022-10-03T12:44:10.653Z,38.22
2022-10-03T12:49:20.078Z,38.03
2022-10-03T12:54:45.029Z,38.45
2022-10-03T12:59:55.122Z,38.17
2022-10-03T13:05:33.015Z,37.60
2022-10-03T13:10:43.024Z,38.72
2022-10-03T13:16:08.816Z,37.92
2022-10-03T13:21:41.118Z,38.38
2022-10-03T13:26:54.603Z,37.95
2022-10-03T13:32:22.651Z,38.90
2022-10-03T13:37:33.712Z,38.25
2022-10-03T13:42:45.249Z,37.78
2022-10-03T13:47:53.861Z,38.13
2022-10-03T13:53:02.868Z,37.85
2022-10-03T13:58:37.644Z,37.97
2022-10-03T14:03:51.030Z,37.10
2022-10-03T14:09:27.167Z,38.17
2022-10-03T14:14:53.527Z,37.58
2022-10-03T14:20:12.122Z,38.30
2022-10-03T14:25:24.152Z,37.95
2022-10-03T14:30:36.941Z,38.05
2022-10-03T14:35:45.047Z,37.50
2022-10-03T14:40:50.992Z,37.60
2022-10-03T14:45:58.985Z,37.50
2022-10-03T14:51:13.028Z,37.28
2022-10-03T14:56:20.409Z,37.60
2022-10-03T15:01:28.746Z,37.28
2022-10-03T15:06:50.371Z,38.20
2022-10-03T15:11:59.586Z,37.03
2022-10-03T15:17:08.225Z,38.50
2022-10-03T15:22:30.964Z,37.08
2022-10-03T15:27:35.586Z,37.90
2022-10-03T15:32:43.678Z,38.20
2022-10-03T15:37:48.756Z,37.20
2022-10-03T15:43:02.305Z,37.55
2022-10-03T15:48:13.387Z,37.10
2022-10-03T15:53:38.352Z,37.33
2022-10-03T15:58:46.309Z,37.50
2022-10-03T16:03:53.675Z,37.17
2022-10-03T16:09:01.366Z,36.88
2022-10-03T16:14:15.412Z,37.38
2022-10-03T16:19:41.088Z,36.53
2022-10-03T16:24:51.378Z,36.53
2022-10-03T16:30:01.022Z,36.55
2022-10-03T16:35:06.443Z,36.70
2022-10-03T16:40:21.642Z,38.40
2022-10-03T16:45:28.918Z,37.55
2022-10-03T16:50:38.763Z,37.55
2022-10-03T16:55:49.890Z,37.00
2022-10-03T17:01:25.185Z,36.55
2022-10-03T17:06:29.785Z,37.25
2022-10-03T17:11:38.514Z,36.60
2022-10-03T17:16:48.351Z,38.00
2022-10-03T17:21:58.263Z,37.70
2022-10-03T17:27:07.325Z,36.70
2022-10-03T17:32:16.292Z,37.30
2022-10-03T17:37:45.982Z,38.15
2022-10-03T17:43:01.192Z,39.47
2022-10-03T17:48:14.084Z,37.13
2022-10-03T17:53:21.718Z,37.03
2022-10-03T17:58:27.688Z,37.78
2022-10-03T18:03:35.367Z,38.22
2022-10-03T18:08:40.948Z,36.65
2022-10-03T18:13:53.329Z,37.03
2022-10-03T18:19:20.330Z,37.60
2022-10-03T18:24:51.134Z,37.42
2022-10-03T18:30:00.143Z,36.83
2022-10-03T18:35:12.940Z,36.80
2022-10-03T18:40:21.289Z,37.67
2022-10-03T18:45:34.044Z,37.90
2022-10-03T18:50:51.597Z,36.63
2022-10-03T18:56:02.548Z,36.58
2022-10-03T19:01:09.141Z,36.92
2022-10-03T19:06:20.471Z,36.22
2022-10-03T19:11:34.330Z,37.15
2022-10-03T19:16:58.841Z,36.78
2022-10-03T19:22:06.486Z,37.63
2022-10-03T19:27:16.946Z,37.85
2022-10-03T19:32:24.136Z,38.88
2022-10-03T19:37:45.962Z,37.75
2022-10-03T19:42:54.938Z,38.78
2022-10-03T19:48:02.907Z,38.03
2022-10-03T19:53:13.517Z,38.30
2022-10-03T19:58:23.207Z,37.40
2022-10-03T20:03:36.988Z,37.40
2022-10-03T20:08:44.416Z,37.22
2022-10-03T20:13:50.295Z,36.65
2022-10-03T20:18:57.981Z,37.50
2022-10-03T20:24:02.221Z,36.22
2022-10-03T20:29:27.080Z,36.70
2022-10-03T20:34:34.184Z,37.92
2022-10-03T20:39:39.587Z,38.03
2022-10-03T20:45:07.390Z,37.22
2022-10-03T20:50:17.807Z,36.33
2022-10-03T20:55:24.756Z,36.63
2022-10-03T21:00:31.126Z,36.60
2022-10-03T21:05:37.638Z,36.65
2022-10-03T21:10:45.551Z,37.33
2022-10-03T21:15:53.525Z,37.30
2022-10-03T21:21:06.126Z,36.50
2022-10-03T21:26:10.357Z,37.03
2022-10-03T21:31:28.019Z,36.30
2022-10-03T21:36:38.113Z,35.80
2022-10-03T21:41:53.467Z,35.80
2022-10-03T21:47:17.960Z,36.30
2022-10-03T21:52:30.530Z,36.28
2022-10-03T21:57:44.852Z,35.65
2022-10-03T22:03:02.865Z,37.60
2022-10-03T22:08:15.565Z,36.67
2022-10-03T22:13:23.235Z,35.70
2022-10-03T22:18:31.597Z,35.47
2022-10-03T22:23:42.102Z,35.47
2022-10-03T22:28:53.950Z,35.22
2022-10-03T22:34:12.202Z,35.22
2022-10-03T22:39:18.509Z,36.35
2022-10-03T22:44:25.922Z,36.03
2022-10-03T22:49:35.235Z,36.60
2022-10-03T22:54:41.070Z,35.92
2022-10-03T22:59:51.218Z,36.00
2022-10-03T23:05:00.710Z,35.70
2022-10-03T23:10:27.711Z,37.03
2022-10-03T23:15:33.388Z,37.10
2022-10-03T23:21:03.412Z,35.92
2022-10-03T23:26:33.608Z,36.00
2022-10-03T23:31:58.866Z,35.65
2022-10-03T23:37:21.765Z,35.60
2022-10-03T23:42:27.223Z,36.75
2022-10-03T23:47:34.326Z,35.85
2022-10-03T23:52:45.730Z,36.72
2022-10-03T23:57:49.266Z,35.90
